createdAt,value
2023-04-28T00:00:05.109Z,1004.33
2023-04-28T00:02:37.861Z,1004.33
2023-04-28T00:05:11.291Z,1004.29
2023-04-28T00:07:43.995Z,1004.24
2023-04-28T00:10:17.265Z,1004.18
2023-04-28T00:12:50.180Z,1004.14
2023-04-28T00:15:23.084Z,1004.12
2023-04-28T00:17:56.180Z,1004.09
2023-04-28T00:20:29.228Z,1004.07
2023-04-28T00:23:02.165Z,1004.02
2023-04-28T00:25:35.076Z,1003.97
2023-04-28T00:28:08.019Z,1003.93
2023-04-28T00:30:41.186Z,1003.89
2023-04-28T00:33:14.125Z,1003.85
2023-04-28T00:35:46.979Z,1003.80
2023-04-28T00:38:19.956Z,1003.77
2023-04-28T00:40:53.130Z,1003.74
2023-04-28T00:43:25.986Z,1003.73
2023-04-28T00:45:59.122Z,1003.70
2023-04-28T00:48:32.254Z,1003.66
2023-04-28T00:51:05.156Z,1003.63
2023-04-28T00:53:38.278Z,1003.57
2023-04-28T00:56:10.980Z,1003.52
2023-04-28T00:58:44.312Z,1003.48
2023-04-28T01:01:17.302Z,1003.44
2023-04-28T01:03:50.401Z,1003.41
2023-04-28T01:06:23.152Z,1003.35
2023-04-28T01:08:56.030Z,1003.29
2023-04-28T01:11:28.923Z,1003.25
2023-04-28T01:14:02.262Z,1003.22
2023-04-28T01:16:34.998Z,1003.20
2023-04-28T01:19:08.246Z,1003.18
2023-04-28T01:21:41.157Z,1003.16
2023-04-28T01:24:14.115Z,1003.14
2023-04-28T01:26:47.257Z,1003.12
2023-04-28T01:29:20.331Z,1003.09
2023-04-28T01:31:53.181Z,1003.09
2023-04-28T01:34:26.275Z,1003.10
2023-04-28T01:36:59.464Z,1003.08
2023-04-28T01:39:33.308Z,1003.07
2023-04-28T01:42:05.939Z,1003.05
2023-04-28T01:44:39.085Z,1003.06
2023-04-28T01:47:16.118Z,1003.04
2023-04-28T01:49:49.272Z,1003.01
2023-04-28T01:52:22.242Z,1003.00
2023-04-28T01:54:55.357Z,1003.03
2023-04-28T01:57:28.309Z,1003.04
2023-04-28T02:00:01.356Z,1003.03
2023-04-28T02:02:34.504Z,1003.03
2023-04-28T02:05:06.990Z,1003.01
2023-04-28T02:07:40.448Z,1002.98
2023-04-28T02:10:13.420Z,1002.95
2023-04-28T02:12:46.383Z,1002.92
2023-04-28T02:15:18.973Z,1002.91
2023-04-28T02:17:52.503Z,1002.89
2023-04-28T02:20:25.464Z,1002.91
2023-04-28T02:22:59.343Z,1002.94
2023-04-28T02:25:32.396Z,1002.95
2023-04-28T02:28:05.298Z,1002.98
2023-04-28T02:30:38.271Z,1003.01
2023-04-28T02:33:11.432Z,1003.03
2023-04-28T02:35:44.398Z,1003.08
2023-04-28T02:38:17.355Z,1003.08
2023-04-28T02:40:50.295Z,1003.07
2023-04-28T02:43:23.555Z,1003.06
2023-04-28T02:45:57.129Z,1003.04
2023-04-28T02:48:30.486Z,1003.04
2023-04-28T02:51:03.231Z,1003.05
2023-04-28T02:53:36.466Z,1003.04
2023-04-28T02:56:09.047Z,1003.01
2023-04-28T02:58:42.420Z,1002.97
2023-04-28T03:01:15.397Z,1002.94
2023-04-28T03:03:48.707Z,1002.90
2023-04-28T03:06:21.316Z,1002.86
2023-04-28T03:08:54.589Z,1002.84
2023-04-28T03:11:28.527Z,1002.83
2023-04-28T03:14:16.721Z,1002.80
2023-04-28T03:16:49.312Z,1002.77
2023-04-28T03:19:22.204Z,1002.73
2023-04-28T03:21:55.415Z,1002.69
2023-04-28T03:24:28.276Z,1002.66
2023-04-28T03:27:01.535Z,1002.63
2023-04-28T03:29:34.460Z,1002.60
2023-04-28T03:32:07.198Z,1002.56
2023-04-28T03:34:40.455Z,1002.51
2023-04-28T03:37:13.198Z,1002.47
2023-04-28T03:39:46.294Z,1002.45
2023-04-28T03:42:19.537Z,1002.42
2023-04-28T03:44:52.539Z,1002.40
2023-04-28T03:47:25.551Z,1002.39
2023-04-28T03:49:58.475Z,1002.35
2023-04-28T03:52:31.258Z,1002.34
2023-04-28T03:55:04.629Z,1002.33
2023-04-28T03:57:51.413Z,1002.33
2023-04-28T04:00:24.502Z,1002.31
2023-04-28T04:02:57.803Z,1002.30
2023-04-28T04:05:30.360Z,1002.30
2023-04-28T04:08:03.214Z,1002.28
2023-04-28T04:10:36.202Z,1002.27
2023-04-28T04:13:09.143Z,1002.28
2023-04-28T04:15:42.551Z,1002.28
2023-04-28T04:18:15.512Z,1002.28
2023-04-28T04:20:48.300Z,1002.26
2023-04-28T04:23:21.300Z,1002.24
2023-04-28T04:25:54.603Z,1002.22
2023-04-28T04:28:27.336Z,1002.18
2023-04-28T04:31:00.499Z,1002.20
2023-04-28T04:33:33.581Z,1002.19
2023-04-28T04:36:06.497Z,1002.17
2023-04-28T04:38:39.347Z,1002.15
2023-04-28T04:41:12.746Z,1002.15
2023-04-28T04:43:46.543Z,1002.16
2023-04-28T04:46:19.607Z,1002.15
2023-04-28T04:48:52.342Z,1002.13
2023-04-28T04:51:25.391Z,1002.11
2023-04-28T04:53:58.370Z,1002.08
2023-04-28T04:56:31.352Z,1002.05
2023-04-28T04:59:18.342Z,1002.03
2023-04-28T05:01:51.510Z,1002.01
2023-04-28T05:04:30.570Z,1002.00
2023-04-28T05:07:03.259Z,1001.99
2023-04-28T05:09:36.388Z,1001.99
2023-04-28T05:12:09.298Z,1001.98
2023-04-28T05:14:42.567Z,1001.98
2023-04-28T05:17:15.391Z,1001.99
2023-04-28T05:19:48.606Z,1002.00
2023-04-28T05:22:21.572Z,1001.99
2023-04-28T05:24:54.425Z,1001.99
2023-04-28T05:27:27.576Z,1001.97
2023-04-28T05:30:00.372Z,1001.97
2023-04-28T05:32:33.337Z,1001.98
2023-04-28T05:35:06.307Z,1001.99
2023-04-28T05:37:39.424Z,1001.99
2023-04-28T05:40:12.733Z,1001.99
2023-04-28T05:42:51.215Z,1001.97
2023-04-28T05:45:24.798Z,1001.95
2023-04-28T05:47:58.358Z,1001.94
2023-04-28T05:50:38.986Z,1001.94
2023-04-28T05:53:10.294Z,1001.94
2023-04-28T05:55:43.452Z,1001.94
2023-04-28T05:58:16.747Z,1001.95
2023-04-28T06:00:49.464Z,1001.98
2023-04-28T06:03:22.797Z,1002.01
2023-04-28T06:05:55.707Z,1002.04
2023-04-28T06:08:28.669Z,1002.07
2023-04-28T06:11:01.662Z,1002.11
2023-04-28T06:13:34.533Z,1002.14
2023-04-28T06:16:07.794Z,1002.14
2023-04-28T06:18:40.525Z,1002.15
2023-04-28T06:21:13.567Z,1002.15
2023-04-28T06:23:46.666Z,1002.14
2023-04-28T06:26:19.708Z,1002.13
2023-04-28T06:28:52.926Z,1002.13
2023-04-28T06:31:26.521Z,1002.13
2023-04-28T06:33:59.671Z,1002.13
2023-04-28T06:36:46.634Z,1002.15
2023-04-28T06:39:19.693Z,1002.15
2023-04-28T06:41:52.736Z,1002.16
2023-04-28T06:44:25.669Z,1002.16
2023-04-28T06:46:58.538Z,1002.16
2023-04-28T06:49:31.739Z,1002.16
2023-04-28T06:52:04.811Z,1002.17
2023-04-28T06:54:37.684Z,1002.18
2023-04-28T06:57:10.690Z,1002.19
2023-04-28T06:59:43.573Z,1002.20
2023-04-28T07:02:18.646Z,1002.20
2023-04-28T07:04:51.445Z,1002.19
2023-04-28T07:07:24.520Z,1002.18
2023-04-28T07:09:57.465Z,1002.18
2023-04-28T07:12:30.755Z,1002.16
2023-04-28T07:15:03.571Z,1002.13
2023-04-28T07:17:36.636Z,1002.10
2023-04-28T07:20:09.462Z,1002.09
2023-04-28T07:22:42.562Z,1002.06
2023-04-28T07:25:15.525Z,1002.04
2023-04-28T07:27:48.456Z,1002.02
2023-04-28T07:30:28.006Z,1002.02
2023-04-28T07:32:54.910Z,1001.99
2023-04-28T07:35:27.637Z,1001.97
2023-04-28T07:38:00.607Z,1001.95
2023-04-28T07:40:33.503Z,1001.94
2023-04-28T07:43:06.520Z,1001.95
2023-04-28T07:45:39.867Z,1001.93
2023-04-28T07:48:12.589Z,1001.90
2023-04-28T07:50:45.661Z,1001.91
2023-04-28T07:53:18.701Z,1001.93
2023-04-28T07:55:51.685Z,1001.89
2023-04-28T07:58:24.629Z,1001.86
2023-04-28T08:00:57.823Z,1001.88
2023-04-28T08:03:31.362Z,1001.86
2023-04-28T08:06:05.006Z,1001.85
2023-04-28T08:08:37.566Z,1001.86
2023-04-28T08:11:10.588Z,1001.84
2023-04-28T08:13:43.738Z,1001.81
2023-04-28T08:16:16.733Z,1001.81
2023-04-28T08:18:49.755Z,1001.83
2023-04-28T08:21:22.931Z,1001.86
2023-04-28T08:23:55.809Z,1001.88
2023-04-28T08:26:28.655Z,1001.89
2023-04-28T08:29:01.545Z,1001.90
2023-04-28T08:31:35.018Z,1001.90
2023-04-28T08:34:07.839Z,1001.89
2023-04-28T08:36:40.700Z,1001.92
2023-04-28T08:39:13.832Z,1001.95
2023-04-28T08:41:46.688Z,1001.96
2023-04-28T08:44:19.889Z,1001.99
2023-04-28T08:46:52.837Z,1002.01
2023-04-28T08:49:25.870Z,1002.03
2023-04-28T08:51:58.910Z,1002.03
2023-04-28T08:54:36.561Z,1002.02
2023-04-28T08:57:09.950Z,1002.01
2023-04-28T08:59:42.661Z,1002.01
2023-04-28T09:02:15.669Z,1002.02
2023-04-28T09:04:48.796Z,1002.02
2023-04-28T09:07:21.788Z,1002.04
2023-04-28T09:09:54.722Z,1002.06
2023-04-28T09:12:27.834Z,1002.07
2023-04-28T09:15:00.942Z,1002.09
2023-04-28T09:17:33.675Z,1002.12
2023-04-28T09:20:06.896Z,1002.14
2023-04-28T09:22:39.827Z,1002.15
2023-04-28T09:25:12.608Z,1002.16
2023-04-28T09:27:45.801Z,1002.16
2023-04-28T09:30:18.713Z,1002.16
2023-04-28T09:32:52.221Z,1002.14
2023-04-28T09:35:26.043Z,1002.13
2023-04-28T09:37:58.736Z,1002.14
2023-04-28T09:40:31.811Z,1002.15
2023-04-28T09:43:15.285Z,1002.14
2023-04-28T09:45:37.733Z,1002.17
2023-04-28T09:48:10.779Z,1002.17
2023-04-28T09:50:44.018Z,1002.16
2023-04-28T09:53:17.059Z,1002.16
2023-04-28T09:55:49.786Z,1002.17
2023-04-28T09:58:23.037Z,1002.17
2023-04-28T10:00:56.083Z,1002.18
2023-04-28T10:03:30.148Z,1002.20
2023-04-28T10:06:03.068Z,1002.21
2023-04-28T10:08:36.031Z,1002.21
2023-04-28T10:11:08.905Z,1002.21
2023-04-28T10:13:42.129Z,1002.18
2023-04-28T10:16:15.065Z,1002.18
2023-04-28T10:18:47.880Z,1002.17
2023-04-28T10:21:20.693Z,1002.15
2023-04-28T10:23:53.863Z,1002.15
2023-04-28T10:26:27.006Z,1002.15
2023-04-28T10:28:59.774Z,1002.18
2023-04-28T10:31:33.057Z,1002.18
2023-04-28T10:34:05.942Z,1002.16
2023-04-28T10:36:39.064Z,1002.16
2023-04-28T10:39:11.897Z,1002.15
2023-04-28T10:41:44.876Z,1002.13
2023-04-28T10:44:18.022Z,1002.10
2023-04-28T10:46:50.982Z,1002.07
2023-04-28T10:49:24.156Z,1002.06
2023-04-28T10:51:57.065Z,1002.04
2023-04-28T10:54:30.015Z,1002.04
2023-04-28T10:57:03.116Z,1002.01
2023-04-28T10:59:35.934Z,1002.01
2023-04-28T11:02:09.252Z,1002.02
2023-04-28T11:04:41.976Z,1002.00
2023-04-28T11:07:15.041Z,1002.00
2023-04-28T11:09:48.298Z,1001.97
2023-04-28T11:12:21.874Z,1001.98
2023-04-28T11:14:54.995Z,1001.98
2023-04-28T11:17:27.987Z,1001.96
2023-04-28T11:20:01.132Z,1001.96
2023-04-28T11:22:34.159Z,1001.96
2023-04-28T11:25:06.913Z,1001.95
2023-04-28T11:27:40.137Z,1001.95
2023-04-28T11:30:13.033Z,1001.91
2023-04-28T11:32:45.977Z,1001.90
2023-04-28T11:35:19.175Z,1001.90
2023-04-28T11:37:52.152Z,1001.89
2023-04-28T11:40:24.993Z,1001.89
2023-04-28T11:42:59.065Z,1001.91
2023-04-28T11:45:32.017Z,1001.90
2023-04-28T11:48:05.233Z,1001.92
2023-04-28T11:50:37.902Z,1001.91
2023-04-28T11:53:25.146Z,1001.90
2023-04-28T11:55:58.240Z,1001.89
2023-04-28T11:58:30.977Z,1001.90
2023-04-28T12:01:04.180Z,1001.90
2023-04-28T12:03:37.540Z,1001.92
2023-04-28T12:06:11.224Z,1001.92
2023-04-28T12:08:44.304Z,1001.91
2023-04-28T12:11:19.621Z,1001.92
2023-04-28T12:13:50.210Z,1001.93
2023-04-28T12:16:23.301Z,1001.92
2023-04-28T12:18:56.010Z,1001.92
2023-04-28T12:21:29.398Z,1001.93
2023-04-28T12:24:03.245Z,1001.94
2023-04-28T12:26:36.015Z,1001.94
2023-04-28T12:29:09.291Z,1001.93
2023-04-28T12:31:42.071Z,1001.91
2023-04-28T12:34:15.196Z,1001.90
2023-04-28T12:36:48.217Z,1001.90
2023-04-28T12:39:21.040Z,1001.89
2023-04-28T12:41:54.287Z,1001.91
2023-04-28T12:44:28.231Z,1001.92
2023-04-28T12:47:01.008Z,1001.92
2023-04-28T12:49:34.390Z,1001.94
2023-04-28T12:52:08.256Z,1001.94
2023-04-28T12:54:40.953Z,1001.90
2023-04-28T12:57:14.098Z,1001.86
2023-04-28T13:00:01.287Z,1001.82
2023-04-28T13:02:34.511Z,1001.82
2023-04-28T13:05:07.429Z,1001.85
2023-04-28T13:07:40.324Z,1001.87
2023-04-28T13:10:13.160Z,1001.87
2023-04-28T13:12:46.339Z,1001.88
2023-04-28T13:15:19.163Z,1001.87
2023-04-28T13:17:52.376Z,1001.85
2023-04-28T13:20:25.271Z,1001.83
2023-04-28T13:22:58.339Z,1001.80
2023-04-28T13:25:31.367Z,1001.76
2023-04-28T13:28:04.348Z,1001.74
2023-04-28T13:30:37.299Z,1001.71
2023-04-28T13:33:10.541Z,1001.70
2023-04-28T13:35:44.284Z,1001.70
2023-04-28T13:38:17.308Z,1001.67
2023-04-28T13:40:50.122Z,1001.64
2023-04-28T13:43:23.268Z,1001.62
2023-04-28T13:45:56.390Z,1001.60
2023-04-28T13:48:29.413Z,1001.58
2023-04-28T13:51:02.158Z,1001.57
2023-04-28T13:53:41.321Z,1001.55
2023-04-28T13:56:14.173Z,1001.56
2023-04-28T13:58:47.209Z,1001.57
2023-04-28T14:01:20.370Z,1001.56
2023-04-28T14:03:53.454Z,1001.57
2023-04-28T14:06:26.302Z,1001.57
2023-04-28T14:08:59.346Z,1001.56
2023-04-28T14:11:32.045Z,1001.51
2023-04-28T14:14:05.146Z,1001.45
2023-04-28T14:16:38.430Z,1001.36
2023-04-28T14:19:11.471Z,1001.27
2023-04-28T14:21:44.385Z,1001.22
2023-04-28T14:24:17.169Z,1001.22
2023-04-28T14:26:50.378Z,1001.23
2023-04-28T14:29:23.552Z,1001.24
2023-04-28T14:31:57.428Z,1001.24
2023-04-28T14:34:30.362Z,1001.19
2023-04-28T14:37:03.238Z,1001.15
2023-04-28T14:39:36.463Z,1001.13
2023-04-28T14:42:09.300Z,1001.11
2023-04-28T14:44:48.220Z,1001.08
2023-04-28T14:47:21.351Z,1001.04
2023-04-28T14:50:08.478Z,1001.00
2023-04-28T14:52:41.467Z,1000.96
2023-04-28T14:55:14.598Z,1000.91
2023-04-28T14:57:48.560Z,1000.87
2023-04-28T15:00:22.364Z,1000.84
2023-04-28T15:03:09.348Z,1000.86
2023-04-28T15:05:42.426Z,1000.86
2023-04-28T15:08:15.127Z,1000.84
2023-04-28T15:10:48.268Z,1000.83
2023-04-28T15:13:21.442Z,1000.82
2023-04-28T15:15:54.217Z,1000.79
2023-04-28T15:18:27.589Z,1000.78
2023-04-28T15:21:01.494Z,1000.77
2023-04-28T15:23:35.447Z,1000.77
2023-04-28T15:26:10.355Z,1000.77
2023-04-28T15:28:43.521Z,1000.77
2023-04-28T15:31:16.411Z,1000.74
2023-04-28T15:33:55.469Z,1000.70
2023-04-28T15:36:28.445Z,1000.68
2023-04-28T15:39:01.696Z,1000.66
2023-04-28T15:41:35.511Z,1000.65
2023-04-28T15:44:08.470Z,1000.63
2023-04-28T15:46:41.198Z,1000.60
2023-04-28T15:49:14.301Z,1000.56
2023-04-28T15:51:47.359Z,1000.55
2023-04-28T15:54:20.410Z,1000.55
2023-04-28T15:56:53.342Z,1000.52
2023-04-28T15:59:26.289Z,1000.50
2023-04-28T16:01:59.755Z,1000.48
2023-04-28T16:04:33.318Z,1000.45
2023-04-28T16:07:06.238Z,1000.44
2023-04-28T16:09:39.329Z,1000.42
2023-04-28T16:12:12.412Z,1000.41
2023-04-28T16:14:45.368Z,1000.44
2023-04-28T16:17:18.368Z,1000.45
2023-04-28T16:19:51.407Z,1000.43
2023-04-28T16:22:24.560Z,1000.41
2023-04-28T16:24:57.546Z,1000.37
2023-04-28T16:27:30.256Z,1000.34
2023-04-28T16:30:03.505Z,1000.30
2023-04-28T16:32:36.433Z,1000.27
2023-04-28T16:35:09.894Z,1000.24
2023-04-28T16:37:42.468Z,1000.22
2023-04-28T16:40:15.623Z,1000.19
2023-04-28T16:42:52.476Z,1000.18
2023-04-28T16:45:25.821Z,1000.15
2023-04-28T16:47:59.863Z,1000.14
2023-04-28T16:50:33.517Z,1000.14
2023-04-28T16:53:06.699Z,1000.15
2023-04-28T16:55:39.298Z,1000.17
2023-04-28T16:58:12.634Z,1000.21
2023-04-28T17:00:45.378Z,1000.23
2023-04-28T17:03:18.752Z,1000.24
2023-04-28T17:05:51.599Z,1000.27
2023-04-28T17:08:24.487Z,1000.28
2023-04-28T17:10:57.574Z,1000.28
2023-04-28T17:13:30.806Z,1000.27
2023-04-28T17:16:04.402Z,1000.25
2023-04-28T17:18:37.323Z,1000.21
2023-04-28T17:21:12.425Z,1000.16
2023-04-28T17:23:45.521Z,1000.11
2023-04-28T17:26:18.509Z,1000.06
2023-04-28T17:28:51.543Z,1000.00
2023-04-28T17:31:24.685Z,999.97
2023-04-28T17:33:57.491Z,999.95
2023-04-28T17:36:30.685Z,999.98
2023-04-28T17:39:03.349Z,1000.10
2023-04-28T17:41:36.633Z,1000.24
2023-04-28T17:44:09.680Z,1000.36
2023-04-28T17:46:42.655Z,1000.48
2023-04-28T17:49:15.705Z,1000.54
2023-04-28T17:51:48.707Z,1000.60
2023-04-28T17:54:21.857Z,1000.65
2023-04-28T17:56:55.727Z,1000.68
2023-04-28T17:59:28.732Z,1000.73
2023-04-28T18:02:01.574Z,1000.77
2023-04-28T18:04:34.419Z,1000.81
2023-04-28T18:07:07.374Z,1000.81
2023-04-28T18:09:40.677Z,1000.82
2023-04-28T18:12:27.475Z,1000.83
2023-04-28T18:15:00.684Z,1000.85
2023-04-28T18:17:33.716Z,1000.85
2023-04-28T18:20:06.556Z,1000.83
2023-04-28T18:22:39.417Z,1000.80
2023-04-28T18:25:12.458Z,1000.77
2023-04-28T18:27:45.413Z,1000.77
2023-04-28T18:30:22.656Z,1000.79
2023-04-28T18:32:55.645Z,1000.78
2023-04-28T18:35:28.584Z,1000.77
2023-04-28T18:38:01.641Z,1000.75
2023-04-28T18:40:34.684Z,1000.72
2023-04-28T18:43:07.692Z,1000.70
2023-04-28T18:45:41.182Z,1000.68
2023-04-28T18:48:13.850Z,1000.67
2023-04-28T18:50:46.570Z,1000.65
2023-04-28T18:53:19.623Z,1000.64
2023-04-28T18:55:52.607Z,1000.64
2023-04-28T18:58:25.923Z,1000.63
2023-04-28T19:00:59.807Z,1000.64
2023-04-28T19:03:46.672Z,1000.65
2023-04-28T19:06:19.678Z,1000.67
2023-04-28T19:08:52.841Z,1000.67
2023-04-28T19:11:25.660Z,1000.71
2023-04-28T19:13:58.469Z,1000.73
2023-04-28T19:16:31.789Z,1000.76
2023-04-28T19:19:04.822Z,1000.81
2023-04-28T19:21:37.799Z,1000.85
2023-04-28T19:24:10.514Z,1000.90
2023-04-28T19:26:43.593Z,1000.96
2023-04-28T19:29:17.842Z,1001.02
2023-04-28T19:31:50.744Z,1001.06
2023-04-28T19:34:23.535Z,1001.09
2023-04-28T19:36:56.692Z,1001.13
2023-04-28T19:39:29.847Z,1001.17
2023-04-28T19:42:02.513Z,1001.20
2023-04-28T19:44:35.644Z,1001.25
2023-04-28T19:47:08.635Z,1001.31
2023-04-28T19:49:41.785Z,1001.36
2023-04-28T19:52:14.722Z,1001.41
2023-04-28T19:54:47.522Z,1001.47
2023-04-28T19:57:20.601Z,1001.49
2023-04-28T19:59:53.959Z,1001.52
2023-04-28T20:02:26.853Z,1001.54
2023-04-28T20:04:59.844Z,1001.56
2023-04-28T20:07:32.677Z,1001.57
2023-04-28T20:10:05.556Z,1001.58
2023-04-28T20:12:38.684Z,1001.62
2023-04-28T20:15:11.748Z,1001.65
2023-04-28T20:17:44.653Z,1001.69
2023-04-28T20:20:17.837Z,1001.70
2023-04-28T20:22:50.719Z,1001.72
2023-04-28T20:25:26.855Z,1001.76
2023-04-28T20:27:59.916Z,1001.77
2023-04-28T20:30:32.753Z,1001.79
2023-04-28T20:33:06.023Z,1001.81
2023-04-28T20:35:38.776Z,1001.82
2023-04-28T20:38:11.901Z,1001.81
2023-04-28T20:40:44.616Z,1001.83
2023-04-28T20:43:17.911Z,1001.84
2023-04-28T20:45:50.646Z,1001.86
2023-04-28T20:48:23.652Z,1001.86
2023-04-28T20:50:56.776Z,1001.87
2023-04-28T20:53:31.984Z,1001.87
2023-04-28T20:56:02.633Z,1001.86
2023-04-28T20:58:35.780Z,1001.86
2023-04-28T21:01:08.671Z,1001.86
2023-04-28T21:03:41.983Z,1001.86
2023-04-28T21:06:15.000Z,1001.86
2023-04-28T21:08:47.890Z,1001.86
2023-04-28T21:11:21.213Z,1001.89
2023-04-28T21:13:55.117Z,1001.91
2023-04-28T21:16:29.161Z,1001.92
2023-04-28T21:19:02.075Z,1001.93
2023-04-28T21:21:34.785Z,1001.93
2023-04-28T21:24:07.943Z,1001.96
2023-04-28T21:26:41.031Z,1001.98
2023-04-28T21:29:14.124Z,1002.00
2023-04-28T21:31:48.033Z,1002.01
2023-04-28T21:34:20.735Z,1002.02
2023-04-28T21:36:54.062Z,1002.02
2023-04-28T21:39:27.069Z,1002.05
2023-04-28T21:42:00.029Z,1002.07
2023-04-28T21:44:33.289Z,1002.10
2023-04-28T21:47:09.760Z,1002.13
2023-04-28T21:49:43.110Z,1002.16
2023-04-28T21:52:16.039Z,1002.17
2023-04-28T21:54:48.733Z,1002.18
2023-04-28T21:57:22.062Z,1002.19
2023-04-28T21:59:55.101Z,1002.19
2023-04-28T22:02:28.264Z,1002.19
2023-04-28T22:05:01.147Z,1002.19
2023-04-28T22:07:34.037Z,1002.22
2023-04-28T22:10:07.003Z,1002.22
2023-04-28T22:12:40.150Z,1002.23
2023-04-28T22:15:13.099Z,1002.24
2023-04-28T22:17:46.192Z,1002.27
2023-04-28T22:20:19.151Z,1002.28
2023-04-28T22:22:52.033Z,1002.29
2023-04-28T22:25:25.103Z,1002.32
2023-04-28T22:27:58.165Z,1002.34
2023-04-28T22:30:31.353Z,1002.34
2023-04-28T22:33:05.042Z,1002.35
2023-04-28T22:35:38.165Z,1002.36
2023-04-28T22:38:11.041Z,1002.38
2023-04-28T22:40:44.147Z,1002.40
2023-04-28T22:43:16.917Z,1002.42
2023-04-28T22:45:51.085Z,1002.45
2023-04-28T22:48:24.083Z,1002.47
2023-04-28T22:50:57.168Z,1002.47
2023-04-28T22:53:30.192Z,1002.47
2023-04-28T22:56:03.145Z,1002.47
2023-04-28T22:58:36.287Z,1002.48
2023-04-28T23:01:10.266Z,1002.49
2023-04-28T23:03:43.395Z,1002.50
2023-04-28T23:06:16.206Z,1002.50
2023-04-28T23:08:49.125Z,1002.51
2023-04-28T23:11:22.013Z,1002.51
2023-04-28T23:13:55.125Z,1002.51
2023-04-28T23:16:28.334Z,1002.50
2023-04-28T23:19:01.367Z,1002.52
2023-04-28T23:21:35.198Z,1002.53
2023-04-28T23:24:08.210Z,1002.53
2023-04-28T23:26:41.200Z,1002.55
2023-04-28T23:29:14.336Z,1002.55
2023-04-28T23:31:48.145Z,1002.55
2023-04-28T23:34:20.833Z,1002.55
2023-04-28T23:36:54.241Z,1002.54
2023-04-28T23:39:27.532Z,1002.52
2023-04-28T23:42:01.426Z,1002.53
2023-04-28T23:44:35.179Z,1002.54
2023-04-28T23:47:08.200Z,1002.55
2023-04-28T23:49:41.180Z,1002.55
2023-04-28T23:52:14.226Z,1002.55
2023-04-28T23:54:47.028Z,1002.55
2023-04-28T23:57:20.081Z,1002.55
2023-04-28T23:59:53.481Z,1002.55
